createdAt,value
2019-06-20T00:00:24.428Z,99.02
2019-06-20T00:00:50.693Z,99.21
2019-06-20T00:01:42.958Z,99.21
2019-06-20T00:03:01.435Z,98.63
2019-06-20T00:03:53.741Z,98.72
2019-06-20T00:04:19.877Z,99.06
2019-06-20T00:05:12.285Z,99.74
2019-06-20T00:06:30.792Z,99.99
2019-06-20T00:07:23.114Z,99.99
2019-06-20T00:08:41.687Z,99.99
2019-06-20T00:09:07.844Z,99.99
2019-06-20T00:09:34.012Z,99.99
2019-06-20T00:10:26.361Z,99.99
2019-06-20T00:10:52.483Z,99.99
2019-06-20T00:11:45.747Z,99.99
2019-06-20T00:12:12.784Z,99.99
2019-06-20T00:13:06.087Z,99.99
2019-06-20T00:13:32.225Z,99.99
2019-06-20T00:14:24.519Z,99.99
2019-06-20T00:15:16.858Z,99.99
2019-06-20T00:15:43.032Z,99.99
2019-06-20T00:16:35.400Z,99.99
2019-06-20T00:17:53.894Z,99.99
2019-06-20T00:18:46.189Z,99.99
2019-06-20T00:19:12.376Z,99.99
2019-06-20T00:20:04.672Z,99.99
2019-06-20T00:20:56.947Z,99.99
2019-06-20T00:21:23.097Z,99.99
2019-06-20T00:22:15.450Z,99.99
2019-06-20T00:23:33.901Z,99.99
2019-06-20T00:24:26.235Z,99.99
2019-06-20T00:24:52.413Z,99.99
2019-06-20T00:25:44.764Z,99.99
2019-06-20T00:26:37.089Z,99.99
2019-06-20T00:27:03.231Z,99.99
2019-06-20T00:27:55.593Z,99.99
2019-06-20T00:29:14.053Z,99.99
2019-06-20T00:30:06.431Z,99.99
2019-06-20T00:30:32.599Z,99.99
2019-06-20T00:31:24.946Z,99.99
2019-06-20T00:32:17.271Z,99.99
2019-06-20T00:32:43.447Z,99.99
2019-06-20T00:33:35.781Z,99.99
2019-06-20T00:34:54.315Z,99.99
2019-06-20T00:35:46.634Z,99.99
2019-06-20T00:36:12.774Z,99.99
2019-06-20T00:37:05.107Z,99.99
2019-06-20T00:38:23.585Z,99.99
2019-06-20T00:39:15.904Z,99.99
2019-06-20T00:40:34.405Z,99.99
2019-06-20T00:41:26.761Z,99.99
2019-06-20T00:41:52.899Z,99.99
2019-06-20T00:42:45.250Z,99.99
2019-06-20T00:43:17.246Z,99.99
2019-06-20T00:44:04.724Z,99.99
2019-06-20T00:44:57.008Z,99.99
2019-06-20T00:45:23.174Z,99.99
2019-06-20T00:46:15.476Z,99.99
2019-06-20T00:47:33.910Z,99.99
2019-06-20T00:48:26.341Z,99.99
2019-06-20T00:48:52.548Z,99.99
2019-06-20T00:49:44.861Z,99.99
2019-06-20T00:50:37.231Z,99.99
2019-06-20T00:51:03.482Z,99.99
2019-06-20T00:51:55.860Z,99.99
2019-06-20T00:53:14.515Z,99.99
2019-06-20T00:54:06.893Z,99.99
2019-06-20T00:54:33.057Z,99.99
2019-06-20T00:55:25.411Z,99.99
2019-06-20T00:56:43.904Z,99.99
2019-06-20T00:57:36.261Z,99.99
2019-06-20T00:58:02.505Z,99.99
2019-06-20T00:58:54.833Z,99.99
2019-06-20T00:59:47.197Z,99.99
2019-06-20T01:00:13.342Z,99.99
2019-06-20T01:01:05.680Z,99.99
2019-06-20T01:02:24.273Z,99.99
2019-06-20T01:03:16.654Z,99.99
2019-06-20T01:03:42.837Z,99.99
2019-06-20T01:04:35.188Z,99.99
2019-06-20T01:05:53.710Z,99.99
2019-06-20T01:06:46.122Z,99.99
2019-06-20T01:07:12.290Z,99.99
2019-06-20T01:08:04.705Z,99.99
2019-06-20T01:08:57.054Z,99.99
2019-06-20T01:09:23.214Z,99.99
2019-06-20T01:10:15.503Z,99.99
2019-06-20T01:11:34.105Z,99.99
2019-06-20T01:12:26.442Z,99.99
2019-06-20T01:12:52.580Z,99.99
2019-06-20T01:13:45.920Z,99.99
2019-06-20T01:15:04.376Z,99.99
2019-06-20T01:15:56.697Z,99.99
2019-06-20T01:16:22.897Z,99.99
2019-06-20T01:17:15.238Z,99.99
2019-06-20T01:18:33.696Z,99.99
2019-06-20T01:19:26.040Z,99.99
2019-06-20T01:19:52.180Z,99.99
2019-06-20T01:20:44.506Z,99.99
2019-06-20T01:21:36.828Z,99.99
2019-06-20T01:22:02.987Z,99.99
2019-06-20T01:22:55.303Z,99.99
2019-06-20T01:24:13.805Z,99.99
2019-06-20T01:25:06.130Z,99.99
2019-06-20T01:25:32.332Z,99.99
2019-06-20T01:26:24.693Z,99.99
2019-06-20T01:27:17.018Z,99.99
2019-06-20T01:27:43.156Z,99.99
2019-06-20T01:28:35.439Z,99.99
2019-06-20T01:29:53.893Z,99.99
2019-06-20T01:30:46.232Z,99.99
2019-06-20T01:31:12.408Z,99.99
2019-06-20T01:32:04.718Z,99.99
2019-06-20T01:32:57.023Z,99.99
2019-06-20T01:33:23.190Z,99.99
2019-06-20T01:34:15.489Z,99.99
2019-06-20T01:35:33.953Z,99.99
2019-06-20T01:36:26.242Z,99.99
2019-06-20T01:36:52.400Z,99.99
2019-06-20T01:37:44.725Z,99.99
2019-06-20T01:38:37.040Z,99.99
2019-06-20T01:39:03.207Z,99.99
2019-06-20T01:39:55.492Z,99.99
2019-06-20T01:41:14.007Z,99.99
2019-06-20T01:42:06.321Z,99.99
2019-06-20T01:42:32.486Z,99.99
2019-06-20T01:43:24.779Z,99.99
2019-06-20T01:43:52.893Z,99.99
2019-06-20T01:44:45.215Z,99.99
2019-06-20T01:46:03.675Z,99.99
2019-06-20T01:46:56.066Z,99.99
2019-06-20T01:47:22.207Z,99.99
2019-06-20T01:48:14.553Z,99.99
2019-06-20T01:49:06.838Z,99.99
2019-06-20T01:49:33.008Z,99.99
2019-06-20T01:50:25.326Z,99.99
2019-06-20T01:51:43.794Z,99.99
2019-06-20T01:52:36.071Z,99.99
2019-06-20T01:53:02.241Z,99.99
2019-06-20T01:53:54.551Z,99.99
2019-06-20T01:54:46.894Z,99.99
2019-06-20T01:55:13.039Z,99.99
2019-06-20T01:56:05.327Z,99.99
2019-06-20T01:57:23.815Z,99.99
2019-06-20T01:58:16.102Z,99.99
2019-06-20T01:58:42.243Z,99.99
2019-06-20T01:59:34.611Z,99.99
2019-06-20T02:00:26.976Z,99.99
2019-06-20T02:00:53.144Z,99.99
2019-06-20T02:01:45.529Z,99.99
2019-06-20T02:03:04.056Z,99.99
2019-06-20T02:03:56.349Z,99.99
2019-06-20T02:04:22.485Z,99.99
2019-06-20T02:05:14.770Z,99.99
2019-06-20T02:06:07.067Z,99.99
2019-06-20T02:06:33.213Z,99.99
2019-06-20T02:07:28.067Z,99.99
2019-06-20T02:07:52.652Z,99.99
2019-06-20T02:08:44.947Z,99.99
2019-06-20T02:09:37.297Z,99.99
2019-06-20T02:10:03.465Z,99.99
2019-06-20T02:10:55.785Z,99.99
2019-06-20T02:12:14.257Z,99.99
2019-06-20T02:13:06.573Z,99.99
2019-06-20T02:13:32.738Z,99.99
2019-06-20T02:14:27.011Z,99.99
2019-06-20T02:14:53.185Z,99.99
2019-06-20T02:15:45.569Z,99.99
2019-06-20T02:17:04.086Z,99.99
2019-06-20T02:17:56.404Z,99.99
2019-06-20T02:18:22.549Z,99.99
2019-06-20T02:19:14.864Z,99.99
2019-06-20T02:20:07.161Z,99.99
2019-06-20T02:20:33.368Z,99.99
2019-06-20T02:21:25.670Z,99.99
2019-06-20T02:22:44.209Z,99.99
2019-06-20T02:23:36.623Z,99.99
2019-06-20T02:24:02.845Z,99.99
2019-06-20T02:24:55.147Z,99.99
2019-06-20T02:26:13.599Z,99.99
2019-06-20T02:27:05.918Z,99.99
2019-06-20T02:28:24.371Z,99.99
2019-06-20T02:29:16.743Z,99.99
2019-06-20T02:29:42.903Z,99.99
2019-06-20T02:30:35.242Z,99.99
2019-06-20T02:31:53.758Z,99.99
2019-06-20T02:32:46.054Z,99.99
2019-06-20T02:33:12.223Z,99.99
2019-06-20T02:34:04.545Z,99.99
2019-06-20T02:34:56.865Z,99.99
2019-06-20T02:35:23.027Z,99.99
2019-06-20T02:36:15.404Z,99.99
2019-06-20T02:37:33.865Z,99.99
2019-06-20T02:38:26.177Z,99.99
2019-06-20T02:38:52.375Z,99.99
2019-06-20T02:39:44.725Z,99.99
2019-06-20T02:40:37.043Z,99.99
2019-06-20T02:41:03.212Z,99.99
2019-06-20T02:41:55.516Z,99.99
2019-06-20T02:43:14.000Z,99.99
2019-06-20T02:44:06.317Z,99.99
2019-06-20T02:44:34.470Z,99.99
2019-06-20T02:45:26.775Z,99.99
2019-06-20T02:45:52.932Z,99.99
2019-06-20T02:46:45.269Z,99.99
2019-06-20T02:48:03.863Z,99.99
2019-06-20T02:48:56.169Z,99.99
2019-06-20T02:49:22.325Z,99.99
2019-06-20T02:50:14.646Z,99.99
2019-06-20T02:51:33.953Z,99.99
2019-06-20T02:52:26.611Z,99.99
2019-06-20T02:52:52.777Z,99.99
2019-06-20T02:53:45.069Z,99.99
2019-06-20T02:55:03.564Z,99.99
2019-06-20T02:55:55.878Z,99.99
2019-06-20T02:57:14.323Z,99.99
2019-06-20T02:58:06.669Z,99.99
2019-06-20T02:58:32.854Z,99.99
2019-06-20T02:59:25.147Z,99.99
2019-06-20T03:00:43.754Z,99.99
2019-06-20T03:01:36.087Z,99.99
2019-06-20T03:02:02.301Z,99.99
2019-06-20T03:02:54.615Z,99.99
2019-06-20T03:03:46.924Z,99.99
2019-06-20T03:04:13.061Z,99.99
2019-06-20T03:05:06.410Z,99.99
2019-06-20T03:05:32.543Z,99.99
2019-06-20T03:06:24.834Z,99.99
2019-06-20T03:07:17.243Z,99.99
2019-06-20T03:07:43.404Z,99.99
2019-06-20T03:08:35.712Z,99.99
2019-06-20T03:09:54.282Z,99.99
2019-06-20T03:10:46.582Z,99.99
2019-06-20T03:11:12.743Z,99.99
2019-06-20T03:12:05.045Z,99.99
2019-06-20T03:12:57.346Z,99.99
2019-06-20T03:13:23.484Z,99.99
2019-06-20T03:14:15.858Z,99.99
2019-06-20T03:15:34.356Z,99.99
2019-06-20T03:16:26.672Z,99.99
2019-06-20T03:16:52.826Z,99.99
2019-06-20T03:17:45.138Z,99.99
2019-06-20T03:19:03.597Z,99.99
2019-06-20T03:19:55.889Z,99.99
2019-06-20T03:21:14.392Z,99.99
2019-06-20T03:22:06.699Z,99.99
2019-06-20T03:22:32.877Z,99.99
2019-06-20T03:23:25.294Z,99.99
2019-06-20T03:24:43.851Z,99.99
2019-06-20T03:25:36.129Z,99.99
2019-06-20T03:26:02.277Z,99.99
2019-06-20T03:26:54.552Z,99.99
2019-06-20T03:27:46.925Z,99.99
2019-06-20T03:28:13.091Z,99.99
2019-06-20T03:29:05.385Z,99.99
2019-06-20T03:30:23.883Z,99.99
2019-06-20T03:31:16.208Z,99.99
2019-06-20T03:31:42.396Z,99.99
2019-06-20T03:32:34.786Z,99.99
2019-06-20T03:33:27.104Z,99.99
2019-06-20T03:33:53.284Z,99.99
2019-06-20T03:34:45.726Z,99.99
2019-06-20T03:36:04.208Z,99.99
2019-06-20T03:36:56.499Z,99.99
2019-06-20T03:37:22.639Z,99.99
2019-06-20T03:38:14.989Z,99.99
2019-06-20T03:39:07.304Z,99.99
2019-06-20T03:39:33.460Z,99.99
2019-06-20T03:40:25.827Z,99.99
2019-06-20T03:41:44.340Z,99.99
2019-06-20T03:42:36.695Z,99.99
2019-06-20T03:43:02.831Z,99.99
2019-06-20T03:43:58.184Z,99.99
2019-06-20T03:44:22.312Z,99.99
2019-06-20T03:45:15.627Z,99.99
2019-06-20T03:46:34.217Z,99.99
2019-06-20T03:47:26.546Z,99.99
2019-06-20T03:47:52.694Z,99.99
2019-06-20T03:48:45.004Z,99.99
2019-06-20T03:49:37.368Z,99.99
2019-06-20T03:50:03.494Z,99.99
2019-06-20T03:50:55.795Z,99.99
2019-06-20T03:52:14.286Z,99.99
2019-06-20T03:53:06.648Z,99.99
2019-06-20T03:53:32.801Z,99.99
2019-06-20T03:54:25.092Z,99.99
2019-06-20T03:55:43.555Z,99.99
2019-06-20T03:56:35.879Z,99.99
2019-06-20T03:57:54.313Z,99.99
2019-06-20T03:58:46.608Z,99.99
2019-06-20T03:59:12.754Z,99.99
2019-06-20T04:00:05.042Z,99.99
2019-06-20T04:01:23.556Z,99.99
2019-06-20T04:02:15.912Z,99.99
2019-06-20T04:03:34.375Z,99.99
2019-06-20T04:04:26.714Z,99.99
2019-06-20T04:04:52.877Z,99.99
2019-06-20T04:05:45.228Z,99.99
2019-06-20T04:07:03.666Z,99.99
2019-06-20T04:07:56.032Z,99.99
2019-06-20T04:08:22.170Z,99.99
2019-06-20T04:09:14.452Z,99.99
2019-06-20T04:09:43.150Z,99.99
2019-06-20T04:11:06.143Z,99.99
2019-06-20T04:11:34.007Z,99.99
2019-06-20T04:12:27.317Z,99.99
2019-06-20T04:12:53.699Z,99.99
2019-06-20T04:14:14.676Z,99.99
2019-06-20T04:15:35.633Z,99.99
2019-06-20T04:16:55.018Z,99.99
2019-06-20T04:18:14.042Z,99.99
2019-06-20T04:19:06.870Z,99.99
2019-06-20T04:19:33.345Z,99.99
2019-06-20T04:20:26.037Z,99.99
2019-06-20T04:20:52.432Z,99.99
2019-06-20T04:21:45.134Z,99.99
2019-06-20T04:23:04.538Z,99.99
2019-06-20T04:23:57.382Z,99.99
2019-06-20T04:24:23.728Z,99.99
2019-06-20T04:25:16.311Z,99.99
2019-06-20T04:25:42.510Z,99.99
2019-06-20T04:26:34.832Z,99.99
2019-06-20T04:27:27.186Z,99.99
2019-06-20T04:27:53.405Z,99.99
2019-06-20T04:28:45.720Z,99.99
2019-06-20T04:30:05.219Z,99.99
2019-06-20T04:31:23.702Z,99.99
2019-06-20T04:32:16.042Z,99.99
2019-06-20T04:32:42.171Z,99.99
2019-06-20T04:33:34.514Z,99.99
2019-06-20T04:34:26.898Z,99.99
2019-06-20T04:34:53.039Z,99.99
2019-06-20T04:35:45.468Z,99.99
2019-06-20T04:37:03.960Z,99.99
2019-06-20T04:37:56.288Z,99.99
2019-06-20T04:38:22.469Z,99.99
2019-06-20T04:39:18.988Z,99.99
2019-06-20T04:40:34.301Z,99.99
2019-06-20T04:41:26.585Z,99.99
2019-06-20T04:41:52.758Z,99.99
2019-06-20T04:42:45.084Z,99.99
2019-06-20T04:43:37.427Z,99.99
2019-06-20T04:44:03.536Z,99.99
2019-06-20T04:44:55.857Z,99.99
2019-06-20T04:46:15.333Z,99.99
2019-06-20T04:47:33.761Z,99.99
2019-06-20T04:48:26.098Z,99.99
2019-06-20T04:48:52.237Z,99.99
2019-06-20T04:49:44.572Z,99.99
2019-06-20T04:50:36.861Z,99.99
2019-06-20T04:51:03.027Z,99.99
2019-06-20T04:51:55.367Z,99.99
2019-06-20T04:53:13.834Z,99.99
2019-06-20T04:54:06.127Z,99.99
2019-06-20T04:54:32.267Z,99.99
2019-06-20T04:55:24.605Z,99.99
2019-06-20T04:56:16.939Z,99.99
2019-06-20T04:56:43.145Z,99.99
2019-06-20T04:57:35.471Z,99.99
2019-06-20T04:58:53.928Z,99.99
2019-06-20T04:59:46.308Z,99.99
2019-06-20T05:00:12.445Z,99.99
2019-06-20T05:01:04.746Z,99.99
2019-06-20T05:01:57.059Z,99.99
2019-06-20T05:02:24.369Z,99.99
2019-06-20T05:03:16.608Z,99.99
2019-06-20T05:03:42.755Z,99.99
2019-06-20T05:04:35.078Z,99.99
2019-06-20T05:05:53.701Z,99.99
2019-06-20T05:06:46.015Z,99.99
2019-06-20T05:07:12.160Z,99.99
2019-06-20T05:08:04.513Z,99.99
2019-06-20T05:08:56.811Z,99.99
2019-06-20T05:09:22.952Z,99.99
2019-06-20T05:10:15.249Z,99.99
2019-06-20T05:11:33.787Z,99.99
2019-06-20T05:12:26.135Z,99.99
2019-06-20T05:12:55.756Z,99.99
2019-06-20T05:13:45.618Z,99.99
2019-06-20T05:15:04.375Z,99.99
2019-06-20T05:16:24.890Z,99.99
2019-06-20T05:17:43.972Z,99.99
2019-06-20T05:18:36.265Z,99.99
2019-06-20T05:19:02.457Z,99.99
2019-06-20T05:19:54.751Z,99.99
2019-06-20T05:20:47.089Z,99.99
2019-06-20T05:21:13.246Z,99.99
2019-06-20T05:22:05.577Z,99.99
2019-06-20T05:23:24.040Z,99.99
2019-06-20T05:24:16.489Z,99.99
2019-06-20T05:24:42.648Z,99.99
2019-06-20T05:25:34.948Z,99.99
2019-06-20T05:26:27.257Z,99.99
2019-06-20T05:26:53.414Z,99.99
2019-06-20T05:27:45.745Z,99.99
2019-06-20T05:29:05.449Z,99.99
2019-06-20T05:29:57.056Z,99.99
2019-06-20T05:30:23.302Z,99.99
2019-06-20T05:31:15.894Z,99.99
2019-06-20T05:32:34.587Z,99.99
2019-06-20T05:33:26.878Z,99.99
2019-06-20T05:33:53.060Z,99.99
2019-06-20T05:34:45.403Z,99.99
2019-06-20T05:36:03.862Z,99.99
2019-06-20T05:36:56.222Z,99.99
2019-06-20T05:37:22.385Z,99.99
2019-06-20T05:38:14.779Z,99.99
2019-06-20T05:39:07.151Z,99.59
2019-06-20T05:39:33.307Z,98.92
2019-06-20T05:40:25.641Z,99.98
2019-06-20T05:40:52.822Z,99.79
2019-06-20T05:41:45.138Z,99.11
2019-06-20T05:43:03.715Z,99.02
2019-06-20T05:43:56.001Z,99.4
2019-06-20T05:45:14.494Z,99.79
2019-06-20T05:46:35.953Z,99.99
2019-06-20T05:47:12.180Z,99.99
2019-06-20T05:47:55.996Z,99.02
2019-06-20T05:49:14.807Z,99.02
2019-06-20T05:50:07.104Z,98.58
2019-06-20T05:50:33.277Z,98.1
2019-06-20T05:51:25.585Z,96.85
2019-06-20T05:51:52.716Z,96.94
2019-06-20T05:52:45.137Z,97.14
2019-06-20T05:54:04.464Z,97.09
2019-06-20T05:54:56.775Z,97.24
2019-06-20T05:56:14.470Z,97.33
2019-06-20T05:57:06.755Z,97.33
2019-06-20T05:57:32.919Z,97.04
2019-06-20T05:58:25.304Z,95.5
2019-06-20T05:59:43.849Z,95.31
2019-06-20T06:00:36.184Z,97.04
2019-06-20T06:01:02.329Z,96.56
2019-06-20T06:01:56.328Z,95.79
2019-06-20T06:03:14.213Z,96.51
2019-06-20T06:04:06.609Z,96.8
2019-06-20T06:04:32.785Z,97.19
2019-06-20T06:05:25.846Z,97.04
2019-06-20T06:06:44.380Z,96.37
2019-06-20T06:07:36.747Z,95.69
2019-06-20T06:08:03.783Z,95.79
2019-06-20T06:08:56.075Z,94.58
2019-06-20T06:09:22.222Z,93.91
2019-06-20T06:10:15.544Z,93.62
2019-06-20T06:11:34.127Z,92.94
2019-06-20T06:12:27.302Z,93.04
2019-06-20T06:12:53.534Z,92.27
2019-06-20T06:13:45.860Z,92.08
2019-06-20T06:15:04.387Z,91.69
2019-06-20T06:15:56.726Z,91.11
2019-06-20T06:16:27.040Z,90.24
2019-06-20T06:17:17.220Z,90.24
2019-06-20T06:17:43.364Z,89.86
2019-06-20T06:18:35.672Z,89.61
2019-06-20T06:19:54.167Z,89.51
2019-06-20T06:20:46.547Z,89.32
2019-06-20T06:21:12.685Z,88.75
2019-06-20T06:22:04.983Z,88.84
2019-06-20T06:22:57.368Z,87.78
2019-06-20T06:23:23.566Z,88.26
2019-06-20T06:24:15.857Z,88.36
2019-06-20T06:24:42.413Z,88.75
2019-06-20T06:25:34.724Z,88.07
2019-06-20T06:26:27.083Z,87.78
2019-06-20T06:26:53.225Z,87.78
2019-06-20T06:27:45.555Z,88.84
2019-06-20T06:29:04.063Z,88.65
2019-06-20T06:29:56.426Z,89.32
2019-06-20T06:30:22.565Z,88.17
2019-06-20T06:31:14.900Z,88.07
2019-06-20T06:32:07.244Z,87.68
2019-06-20T06:32:39.818Z,87.59
2019-06-20T06:33:53.903Z,88.07
2019-06-20T06:34:46.244Z,87.73
2019-06-20T06:35:12.430Z,87.15
2019-06-20T06:36:04.733Z,86.28
2019-06-20T06:36:57.055Z,86.66
2019-06-20T06:37:23.230Z,85.8
2019-06-20T06:38:21.732Z,85.02
2019-06-20T06:38:42.742Z,85.06
2019-06-20T06:39:35.110Z,84.3
2019-06-20T06:40:53.577Z,84.39
2019-06-20T06:41:45.929Z,83.91
2019-06-20T06:43:04.425Z,84.2
2019-06-20T06:43:56.837Z,84.83
2019-06-20T06:44:23.947Z,84.93
2019-06-20T06:45:16.331Z,85.06
2019-06-20T06:45:42.471Z,85.26
2019-06-20T06:46:44.161Z,85.36
2019-06-20T06:47:02.936Z,84.06
2019-06-20T06:47:55.249Z,84.48
2019-06-20T06:49:13.687Z,84.3
2019-06-20T06:50:06.014Z,84.24
2019-06-20T06:50:32.169Z,83.18
2019-06-20T06:51:24.462Z,82.11
2019-06-20T06:52:16.824Z,81.09
2019-06-20T06:52:42.985Z,80.8
2019-06-20T06:53:35.348Z,80.76
2019-06-20T06:54:53.888Z,81.15
2019-06-20T06:55:47.199Z,80.66
2019-06-20T06:56:13.348Z,80.38
2019-06-20T06:57:05.731Z,80.66
2019-06-20T06:58:24.198Z,81.59
2019-06-20T06:59:16.542Z,82.5
2019-06-20T06:59:42.694Z,82.11
2019-06-20T07:00:35.071Z,81.73
2019-06-20T07:01:53.656Z,82.17
2019-06-20T07:02:45.980Z,82.17
2019-06-20T07:03:12.148Z,82.02
2019-06-20T07:04:04.510Z,81.88
2019-06-20T07:04:56.805Z,82.26
2019-06-20T07:05:22.976Z,82.94
2019-06-20T07:06:15.345Z,83.23
2019-06-20T07:07:33.867Z,84.44
2019-06-20T07:08:26.182Z,83.81
2019-06-20T07:08:52.395Z,84.44
2019-06-20T07:09:44.791Z,83.67
2019-06-20T07:10:37.143Z,83.96
2019-06-20T07:11:03.280Z,84.16
2019-06-20T07:11:55.618Z,84.44
2019-06-20T07:13:14.146Z,84.3
2019-06-20T07:14:06.518Z,83.33
2019-06-20T07:14:32.657Z,83.14
2019-06-20T07:15:24.996Z,83.04
2019-06-20T07:16:50.859Z,82.17
2019-06-20T07:17:36.906Z,81.78
2019-06-20T07:18:03.060Z,82.26
2019-06-20T07:18:55.497Z,81.49
2019-06-20T07:20:15.206Z,81.92
2019-06-20T07:21:07.311Z,80.66
2019-06-20T07:21:33.509Z,80.47
2019-06-20T07:22:25.851Z,79.93
2019-06-20T07:23:44.405Z,79.22
2019-06-20T07:24:36.736Z,78.54
2019-06-20T07:25:02.869Z,78.44
2019-06-20T07:25:55.164Z,78.09
2019-06-20T07:27:13.686Z,78.25
2019-06-20T07:28:05.976Z,78.48
2019-06-20T07:29:24.512Z,77.22
2019-06-20T07:30:16.806Z,77.13
2019-06-20T07:30:42.953Z,77.13
2019-06-20T07:31:35.266Z,77.22
2019-06-20T07:32:53.808Z,76.35
2019-06-20T07:33:46.152Z,75.87
2019-06-20T07:34:12.316Z,75.48
2019-06-20T07:35:04.645Z,75.97
2019-06-20T07:35:57.030Z,75.87
2019-06-20T07:36:23.257Z,75.78
2019-06-20T07:37:15.524Z,76.61
2019-06-20T07:38:34.047Z,76.61
2019-06-20T07:39:26.343Z,76.32
2019-06-20T07:39:52.537Z,77.19
2019-06-20T07:40:44.916Z,76.9
2019-06-20T07:41:37.238Z,76.9
2019-06-20T07:42:03.418Z,77.42
2019-06-20T07:42:55.740Z,77.42
2019-06-20T07:44:14.289Z,77.13
2019-06-20T07:45:06.662Z,75.91
2019-06-20T07:45:32.827Z,76.01
2019-06-20T07:46:26.206Z,75.13
2019-06-20T07:46:52.375Z,74.55
2019-06-20T07:47:44.754Z,74.01
2019-06-20T07:48:37.060Z,73.04
2019-06-20T07:49:03.240Z,73.24
2019-06-20T07:49:55.578Z,72.75
2019-06-20T07:51:14.095Z,71.66
2019-06-20T07:52:06.443Z,73.1
2019-06-20T07:52:32.757Z,73.16
2019-06-20T07:53:27.176Z,71.75
2019-06-20T07:53:53.287Z,72.14
2019-06-20T07:54:45.696Z,73.07
2019-06-20T07:56:04.628Z,72.97
2019-06-20T07:56:56.935Z,72.91
2019-06-20T07:57:23.162Z,72.62
2019-06-20T07:58:15.471Z,72.24
2019-06-20T07:59:33.999Z,72.49
2019-06-20T08:00:26.415Z,72.2
2019-06-20T08:00:52.594Z,73.36
2019-06-20T08:01:44.913Z,73.71
2019-06-20T08:02:37.291Z,74.16
2019-06-20T08:03:03.531Z,75.02
2019-06-20T08:03:56.036Z,75.31
2019-06-20T08:04:22.184Z,75.02
2019-06-20T08:05:14.487Z,75.16
2019-06-20T08:06:06.908Z,75.54
2019-06-20T08:06:33.111Z,75.16
2019-06-20T08:07:25.664Z,74.68
2019-06-20T08:08:44.474Z,74.87
2019-06-20T08:10:06.076Z,73.9
2019-06-20T08:10:33.519Z,73.9
2019-06-20T08:11:25.938Z,73.52
2019-06-20T08:12:44.773Z,73.16
2019-06-20T08:13:37.151Z,73.55
2019-06-20T08:14:03.346Z,73.65
2019-06-20T08:14:55.829Z,73.74
2019-06-20T08:15:23.000Z,73.36
2019-06-20T08:16:15.303Z,73.84
2019-06-20T08:17:35.820Z,73.55
2019-06-20T08:18:54.436Z,73.1
2019-06-20T08:19:46.777Z,73.1
2019-06-20T08:20:13.015Z,73.65
2019-06-20T08:21:05.388Z,72.88
2019-06-20T08:22:23.935Z,74.32
2019-06-20T08:23:16.315Z,74.52
2019-06-20T08:23:42.553Z,74.71
2019-06-20T08:24:35.233Z,75.06
2019-06-20T08:25:55.671Z,75.84
2019-06-20T08:26:46.623Z,76.12
2019-06-20T08:27:15.057Z,75.54
2019-06-20T08:28:35.508Z,76.12
2019-06-20T08:29:56.424Z,76.22
2019-06-20T08:30:24.395Z,75.45
2019-06-20T08:31:17.325Z,75.74
2019-06-20T08:31:43.469Z,75.84
2019-06-20T08:32:36.050Z,76.22
2019-06-20T08:33:05.858Z,76.61
2019-06-20T08:33:57.618Z,76.51
2019-06-20T08:34:23.835Z,77.25
2019-06-20T08:35:16.939Z,77.25
2019-06-20T08:35:43.091Z,77.28
2019-06-20T08:36:35.504Z,77
2019-06-20T08:37:02.740Z,77.15
2019-06-20T08:37:56.047Z,78.85
2019-06-20T08:38:22.359Z,79.14
2019-06-20T08:39:15.023Z,79.62
2019-06-20T08:39:42.191Z,79.72
2019-06-20T08:40:34.507Z,78.89
2019-06-20T08:41:55.434Z,77.73
2019-06-20T08:43:14.656Z,76.61
2019-06-20T08:44:35.232Z,74.52
2019-06-20T08:45:55.267Z,72.04
2019-06-20T08:46:47.276Z,71.5
2019-06-20T08:47:14.339Z,71.11
2019-06-20T08:48:34.038Z,70.18
2019-06-20T08:49:54.967Z,68.02
2019-06-20T08:50:46.115Z,67.44
2019-06-20T08:51:14.538Z,67.05
2019-06-20T08:52:06.727Z,67.05
2019-06-20T08:52:32.945Z,68.21
2019-06-20T08:53:27.115Z,68.08
2019-06-20T08:53:55.725Z,67.98
2019-06-20T08:54:46.697Z,67.34
2019-06-20T08:55:13.913Z,66.89
2019-06-20T08:56:07.297Z,65.08
2019-06-20T08:56:33.833Z,64.14
2019-06-20T08:57:27.325Z,62.13
2019-06-20T08:57:55.613Z,61.55
2019-06-20T08:58:46.094Z,61
2019-06-20T08:59:23.789Z,60.9
2019-06-20T09:00:34.271Z,59.82
2019-06-20T09:01:26.632Z,57.97
2019-06-20T09:01:54.599Z,57.12
2019-06-20T09:02:45.210Z,57.12
2019-06-20T09:03:12.366Z,56.35
2019-06-20T09:04:06.737Z,58.95
2019-06-20T09:04:32.907Z,59.76
2019-06-20T09:05:25.362Z,61.32
2019-06-20T09:06:44.116Z,62.65
2019-06-20T09:07:36.462Z,61.55
2019-06-20T09:08:56.743Z,60.12
2019-06-20T09:09:23.509Z,59.18
2019-06-20T09:10:15.969Z,59.11
2019-06-20T09:10:42.454Z,58.23
2019-06-20T09:11:35.428Z,57.78
2019-06-20T09:12:55.101Z,56.54
2019-06-20T09:14:15.129Z,55.33
2019-06-20T09:15:34.757Z,53.87
2019-06-20T09:16:56.396Z,54.16
2019-06-20T09:17:22.374Z,53.89
2019-06-20T09:18:15.683Z,53.85
2019-06-20T09:19:35.282Z,54.09
2019-06-20T09:20:54.232Z,55.35
2019-06-20T09:21:46.556Z,57.04
2019-06-20T09:22:13.751Z,57.92
2019-06-20T09:23:06.126Z,58.18
2019-06-20T09:23:32.293Z,59.61
2019-06-20T09:24:25.154Z,59.97
2019-06-20T09:25:44.034Z,61.81
2019-06-20T09:26:36.395Z,62.55
2019-06-20T09:27:04.232Z,63.53
2019-06-20T09:27:56.291Z,62.16
2019-06-20T09:28:23.057Z,63.43
2019-06-20T09:29:16.417Z,63.43
2019-06-20T09:29:43.656Z,62.75
2019-06-20T09:30:36.533Z,62.68
2019-06-20T09:31:04.093Z,62.01
2019-06-20T09:31:58.317Z,61.42
2019-06-20T09:32:25.096Z,61.71
2019-06-20T09:33:45.811Z,61.58
2019-06-20T09:35:04.957Z,61.98
2019-06-20T09:36:25.010Z,62.72
2019-06-20T09:37:46.052Z,62.91
2019-06-20T09:38:13.825Z,63.53
2019-06-20T09:39:06.341Z,64.04
2019-06-20T09:39:32.663Z,63.65
2019-06-20T09:40:26.070Z,63.37
2019-06-20T09:40:53.026Z,64.11
2019-06-20T09:41:45.537Z,65.37
2019-06-20T09:42:12.326Z,65.47
2019-06-20T09:43:04.957Z,66.3
2019-06-20T09:43:33.076Z,65.95
2019-06-20T09:44:25.748Z,66.4
2019-06-20T09:44:52.602Z,65.95
2019-06-20T09:45:44.949Z,65.66
2019-06-20T09:47:04.533Z,64.43
2019-06-20T09:47:58.232Z,65.11
2019-06-20T09:48:24.247Z,65.47
2019-06-20T09:49:16.541Z,65.47
2019-06-20T09:49:42.810Z,65.5
2019-06-20T09:50:36.493Z,65.11
2019-06-20T09:51:04.643Z,65.11
2019-06-20T09:52:25.582Z,65.75
2019-06-20T09:52:53.552Z,65.85
2019-06-20T09:53:48.354Z,65.69
2019-06-20T09:54:13.535Z,65.85
2019-06-20T09:55:07.247Z,65.69
2019-06-20T09:55:33.441Z,65.2
2019-06-20T09:56:27.034Z,64.17
2019-06-20T09:56:55.068Z,64.56
2019-06-20T09:57:47.226Z,64.27
2019-06-20T09:58:14.650Z,65.01
2019-06-20T09:59:35.276Z,65.3
2019-06-20T10:00:54.998Z,64.01
2019-06-20T10:01:48.037Z,65.27
2019-06-20T10:02:16.306Z,65.2
2019-06-20T10:02:42.590Z,63.59
2019-06-20T10:03:36.305Z,61.65
2019-06-20T10:04:04.799Z,61.07
2019-06-20T10:05:24.197Z,62.04
2019-06-20T10:06:47.354Z,60.81
2019-06-20T10:07:13.863Z,60.52
2019-06-20T10:08:07.300Z,60.32
2019-06-20T10:08:33.411Z,60.3
2019-06-20T10:09:26.357Z,61.91
2019-06-20T10:09:54.042Z,62.69
2019-06-20T10:10:47.020Z,63.24
2019-06-20T10:11:13.772Z,63.37
2019-06-20T10:12:34.907Z,64.2
2019-06-20T10:13:02.409Z,63.37
2019-06-20T10:13:56.087Z,63.62
2019-06-20T10:14:22.236Z,63.89
2019-06-20T10:15:14.658Z,65.4
2019-06-20T10:16:45.201Z,65.2
2019-06-20T10:17:03.034Z,66.27
2019-06-20T10:17:56.352Z,65.53
2019-06-20T10:18:22.551Z,64.95
2019-06-20T10:19:15.741Z,64.4
2019-06-20T10:20:38.769Z,64.01
2019-06-20T10:21:03.722Z,63.69
2019-06-20T10:21:57.120Z,63.79
2019-06-20T10:22:23.266Z,63.11
2019-06-20T10:23:16.825Z,63.21
2019-06-20T10:23:43.022Z,63.69
2019-06-20T10:24:35.430Z,64.24
2019-06-20T10:25:03.154Z,65.2
2019-06-20T10:26:25.059Z,65.14
2019-06-20T10:26:53.406Z,64.17
2019-06-20T10:27:46.504Z,63.34
2019-06-20T10:28:13.623Z,63.43
2019-06-20T10:29:06.133Z,63.56
2019-06-20T10:29:32.340Z,62.59
2019-06-20T10:30:26.193Z,61.62
2019-06-20T10:30:53.398Z,60.49
2019-06-20T10:31:46.155Z,59.49
2019-06-20T10:32:13.373Z,59.91
2019-06-20T10:33:06.774Z,59.61
2019-06-20T10:33:32.992Z,59.52
2019-06-20T10:34:26.730Z,59.42
2019-06-20T10:34:53.435Z,59
2019-06-20T10:35:46.980Z,59.69
2019-06-20T10:36:13.587Z,59.97
2019-06-20T10:37:07.018Z,59.71
2019-06-20T10:37:33.128Z,59.42
2019-06-20T10:38:26.408Z,59.61
2019-06-20T10:38:53.309Z,59.16